createdAt,value
2018-03-31T00:00:08.875Z,8.73
2018-03-31T00:01:08.881Z,8.65
2018-03-31T00:02:08.898Z,8.70
2018-03-31T00:03:08.909Z,8.73
2018-03-31T00:04:08.922Z,8.73
2018-03-31T00:05:08.936Z,8.61
2018-03-31T00:06:08.951Z,8.71
2018-03-31T00:07:08.963Z,8.68
2018-03-31T00:08:08.985Z,8.68
2018-03-31T00:09:08.991Z,8.73
2018-03-31T00:10:09.015Z,8.61
2018-03-31T00:11:09.018Z,8.71
2018-03-31T00:12:09.040Z,8.66
2018-03-31T00:13:09.047Z,8.65
2018-03-31T00:14:09.074Z,8.70
2018-03-31T00:15:09.095Z,8.68
2018-03-31T00:16:09.170Z,8.76
2018-03-31T00:17:09.102Z,8.80
2018-03-31T00:18:09.116Z,8.83
2018-03-31T00:19:09.132Z,8.81
2018-03-31T00:20:09.144Z,8.81
2018-03-31T00:21:09.157Z,8.84
2018-03-31T00:22:09.175Z,8.81
2018-03-31T00:23:09.183Z,8.84
2018-03-31T00:24:09.200Z,8.80
2018-03-31T00:25:09.216Z,8.81
2018-03-31T00:26:09.228Z,8.89
2018-03-31T00:27:09.250Z,8.81
2018-03-31T00:28:09.257Z,8.86
2018-03-31T00:29:09.272Z,8.80
2018-03-31T00:30:09.282Z,8.81
2018-03-31T00:31:09.297Z,8.79
2018-03-31T00:32:09.310Z,8.84
2018-03-31T00:33:09.326Z,8.86
2018-03-31T00:34:09.342Z,8.73
2018-03-31T00:35:09.352Z,8.81
2018-03-31T00:36:09.369Z,8.79
2018-03-31T00:37:09.385Z,8.68
2018-03-31T00:38:09.396Z,8.63
2018-03-31T00:39:09.413Z,8.66
2018-03-31T00:40:09.421Z,8.62
2018-03-31T00:41:09.441Z,8.77
2018-03-31T00:42:09.450Z,8.73
2018-03-31T00:43:09.469Z,8.65
2018-03-31T00:44:09.476Z,8.70
2018-03-31T00:45:09.494Z,8.68
2018-03-31T00:46:09.505Z,8.70
2018-03-31T00:47:09.521Z,8.66
2018-03-31T00:48:09.547Z,8.70
2018-03-31T00:49:09.550Z,8.71
2018-03-31T00:50:09.562Z,8.66
2018-03-31T00:51:09.575Z,8.70
2018-03-31T00:52:09.588Z,8.76
2018-03-31T00:53:09.601Z,8.71
2018-03-31T00:54:09.614Z,8.66
2018-03-31T00:55:09.628Z,8.50
2018-03-31T00:56:09.644Z,8.50
2018-03-31T00:57:09.657Z,8.59
2018-03-31T00:58:09.671Z,8.53
2018-03-31T00:59:09.694Z,8.48
2018-03-31T01:00:09.699Z,8.44
2018-03-31T01:01:09.716Z,8.40
2018-03-31T01:02:09.737Z,8.38
2018-03-31T01:03:09.742Z,8.40
2018-03-31T01:04:09.762Z,8.41
2018-03-31T01:05:09.766Z,8.40
2018-03-31T01:06:09.781Z,8.40
2018-03-31T01:07:09.793Z,8.37
2018-03-31T01:08:09.806Z,8.40
2018-03-31T01:09:09.823Z,8.37
2018-03-31T01:10:09.836Z,8.47
2018-03-31T01:11:09.853Z,8.41
2018-03-31T01:12:09.862Z,8.37
2018-03-31T01:13:09.878Z,8.30
2018-03-31T01:14:09.891Z,8.33
2018-03-31T01:15:09.904Z,8.34
2018-03-31T01:16:09.917Z,8.34
2018-03-31T01:17:09.931Z,8.36
2018-03-31T01:18:09.960Z,8.29
2018-03-31T01:19:09.958Z,8.30
2018-03-31T01:20:09.972Z,8.34
2018-03-31T01:21:09.987Z,8.30
2018-03-31T01:22:10.000Z,8.30
2018-03-31T01:23:10.013Z,8.20
2018-03-31T01:24:10.027Z,8.20
2018-03-31T01:25:10.047Z,8.18
2018-03-31T01:26:10.057Z,8.15
2018-03-31T01:27:10.066Z,8.15
2018-03-31T01:28:10.081Z,8.18
2018-03-31T01:29:10.106Z,8.16
2018-03-31T01:30:10.112Z,8.12
2018-03-31T01:31:10.120Z,8.15
2018-03-31T01:32:10.134Z,8.08
2018-03-31T01:33:10.151Z,8.00
2018-03-31T01:34:10.163Z,8.05
2018-03-31T01:35:10.174Z,8.11
2018-03-31T01:36:10.186Z,8.07
2018-03-31T01:37:10.202Z,8.05
2018-03-31T01:38:10.216Z,8.12
2018-03-31T01:39:10.229Z,8.04
2018-03-31T01:40:10.239Z,8.05
2018-03-31T01:41:10.258Z,8.04
2018-03-31T01:42:10.267Z,7.95
2018-03-31T01:43:10.282Z,8.00
2018-03-31T01:44:10.300Z,8.00
2018-03-31T01:45:10.310Z,7.98
2018-03-31T01:47:10.334Z,8.01
2018-03-31T01:48:10.348Z,8.01
2018-03-31T01:49:10.357Z,7.97
2018-03-31T01:50:10.375Z,8.02
2018-03-31T01:51:10.380Z,8.05
2018-03-31T01:52:10.396Z,8.11
2018-03-31T01:53:10.410Z,8.02
2018-03-31T01:54:10.421Z,8.05
2018-03-31T01:55:10.435Z,8.10
2018-03-31T01:56:10.449Z,8.02
2018-03-31T01:57:10.469Z,8.00
2018-03-31T01:58:10.477Z,8.07
2018-03-31T01:59:10.489Z,8.05
2018-03-31T02:00:10.503Z,8.01
2018-03-31T02:01:10.516Z,7.92
2018-03-31T02:02:10.529Z,7.98
2018-03-31T02:03:10.542Z,7.98
2018-03-31T02:04:10.557Z,8.01
2018-03-31T02:05:10.570Z,8.02
2018-03-31T02:06:10.585Z,7.98
2018-03-31T02:07:10.597Z,8.01
2018-03-31T02:08:10.609Z,7.95
2018-03-31T02:09:10.623Z,7.95
2018-03-31T02:10:10.636Z,8.02
2018-03-31T02:11:10.655Z,8.00
2018-03-31T02:12:10.663Z,7.92
2018-03-31T02:13:10.676Z,7.95
2018-03-31T02:14:10.694Z,7.92
2018-03-31T02:15:10.703Z,7.92
2018-03-31T02:16:10.718Z,7.92
2018-03-31T02:17:10.730Z,7.92
2018-03-31T02:18:10.745Z,7.92
2018-03-31T02:19:10.756Z,7.92
2018-03-31T02:20:10.771Z,7.93
2018-03-31T02:21:10.784Z,7.97
2018-03-31T02:22:10.800Z,7.95
2018-03-31T02:23:10.813Z,7.98
2018-03-31T02:24:10.825Z,7.98
2018-03-31T02:25:10.837Z,7.93
2018-03-31T02:26:10.850Z,7.95
2018-03-31T02:27:10.863Z,7.86
2018-03-31T02:28:10.881Z,7.86
2018-03-31T02:29:10.892Z,7.86
2018-03-31T02:30:10.905Z,7.80
2018-03-31T02:31:10.921Z,7.85
2018-03-31T02:32:10.931Z,7.82
2018-03-31T02:33:10.944Z,7.79
2018-03-31T02:34:10.961Z,7.86
2018-03-31T02:35:10.969Z,7.92
2018-03-31T02:36:10.993Z,7.83
2018-03-31T02:37:10.998Z,7.90
2018-03-31T02:38:11.010Z,7.89
2018-03-31T02:39:11.026Z,7.90
2018-03-31T02:40:11.037Z,7.92
2018-03-31T02:41:11.054Z,7.90
2018-03-31T02:42:11.069Z,7.93
2018-03-31T02:43:11.082Z,7.97
2018-03-31T02:44:11.090Z,7.90
2018-03-31T02:45:11.105Z,7.87
2018-03-31T02:46:11.118Z,7.92
2018-03-31T02:47:11.130Z,7.90
2018-03-31T02:48:11.148Z,7.93
2018-03-31T02:49:11.157Z,7.92
2018-03-31T02:50:11.174Z,7.97
2018-03-31T02:51:11.194Z,7.98
2018-03-31T02:52:11.199Z,7.98
2018-03-31T02:53:11.215Z,8.01
2018-03-31T02:54:11.231Z,8.01
2018-03-31T02:55:11.252Z,7.98
2018-03-31T02:56:11.249Z,7.98
2018-03-31T02:57:11.264Z,7.98
2018-03-31T02:58:11.291Z,7.98
2018-03-31T02:59:11.289Z,7.97
2018-03-31T03:00:11.305Z,7.98
2018-03-31T03:01:11.322Z,7.90
2018-03-31T03:02:11.328Z,8.01
2018-03-31T03:03:11.348Z,8.00
2018-03-31T03:04:11.357Z,7.92
2018-03-31T03:05:11.368Z,7.97
2018-03-31T03:06:11.394Z,7.93
2018-03-31T03:07:11.396Z,7.89
2018-03-31T03:08:11.410Z,7.98
2018-03-31T03:09:11.428Z,7.92
2018-03-31T03:10:11.438Z,8.00
2018-03-31T03:11:11.449Z,7.87
2018-03-31T03:12:11.462Z,7.86
2018-03-31T03:13:11.477Z,7.92
2018-03-31T03:14:11.490Z,7.93
2018-03-31T03:15:11.507Z,7.92
2018-03-31T03:16:11.518Z,7.82
2018-03-31T03:17:11.529Z,7.85
2018-03-31T03:18:11.543Z,7.85
2018-03-31T03:19:11.557Z,7.85
2018-03-31T03:20:11.569Z,7.83
2018-03-31T03:21:11.584Z,7.87
2018-03-31T03:22:11.599Z,7.92
2018-03-31T03:23:11.609Z,7.89
2018-03-31T03:24:11.623Z,7.92
2018-03-31T03:25:11.636Z,7.97
2018-03-31T03:26:11.651Z,7.89
2018-03-31T03:27:11.663Z,7.93
2018-03-31T03:28:11.678Z,7.92
2018-03-31T03:29:11.691Z,7.95
2018-03-31T03:30:11.708Z,7.90
2018-03-31T03:31:11.717Z,7.92
2018-03-31T03:32:11.731Z,7.90
2018-03-31T03:33:11.745Z,7.86
2018-03-31T03:34:11.758Z,7.89
2018-03-31T03:35:11.773Z,7.93
2018-03-31T03:36:11.782Z,7.97
2018-03-31T03:37:11.797Z,7.89
2018-03-31T03:38:11.810Z,7.97
2018-03-31T03:39:11.823Z,7.98
2018-03-31T03:40:11.840Z,7.97
2018-03-31T03:41:11.850Z,7.97
2018-03-31T03:42:11.864Z,7.97
2018-03-31T03:43:11.888Z,7.98
2018-03-31T03:44:11.892Z,7.97
2018-03-31T03:45:11.904Z,7.87
2018-03-31T03:46:11.918Z,7.98
2018-03-31T03:47:11.935Z,7.98
2018-03-31T03:48:11.948Z,8.01
2018-03-31T03:49:11.958Z,7.97
2018-03-31T03:50:11.971Z,7.90
2018-03-31T03:51:11.984Z,7.93
2018-03-31T03:52:11.997Z,8.01
2018-03-31T03:53:12.013Z,8.00
2018-03-31T03:54:12.024Z,8.00
2018-03-31T03:55:12.038Z,8.00
2018-03-31T03:56:12.052Z,7.97
2018-03-31T03:57:12.071Z,8.02
2018-03-31T03:58:12.080Z,7.95
2018-03-31T03:59:12.092Z,7.97
2018-03-31T04:00:12.109Z,7.97
2018-03-31T04:01:12.118Z,8.01
2018-03-31T04:02:12.145Z,7.98
2018-03-31T04:03:12.147Z,8.02
2018-03-31T04:04:12.159Z,7.93
2018-03-31T04:05:12.173Z,8.01
2018-03-31T04:06:12.203Z,8.00
2018-03-31T04:07:12.199Z,8.00
2018-03-31T04:08:12.212Z,7.98
2018-03-31T04:09:12.226Z,8.00
2018-03-31T04:10:12.240Z,7.93
2018-03-31T04:11:12.253Z,7.93
2018-03-31T04:12:12.265Z,8.02
2018-03-31T04:13:12.283Z,7.98
2018-03-31T04:14:12.295Z,8.04
2018-03-31T04:15:12.306Z,8.05
2018-03-31T04:16:12.322Z,8.01
2018-03-31T04:17:12.340Z,7.98
2018-03-31T04:18:12.347Z,7.90
2018-03-31T04:19:12.360Z,7.97
2018-03-31T04:20:12.372Z,7.89
2018-03-31T04:21:12.387Z,7.85
2018-03-31T04:22:12.405Z,7.85
2018-03-31T04:23:12.412Z,7.83
2018-03-31T04:24:12.427Z,7.69
2018-03-31T04:25:12.442Z,7.72
2018-03-31T04:26:12.456Z,7.75
2018-03-31T04:27:12.465Z,7.74
2018-03-31T04:28:12.481Z,7.74
2018-03-31T04:29:12.499Z,7.75
2018-03-31T04:30:12.507Z,7.61
2018-03-31T04:31:12.518Z,7.58
2018-03-31T04:32:12.533Z,7.61
2018-03-31T04:33:12.547Z,7.64
2018-03-31T04:34:12.569Z,7.67
2018-03-31T04:35:12.571Z,7.68
2018-03-31T04:36:12.583Z,7.60
2018-03-31T04:37:12.599Z,7.69
2018-03-31T04:38:12.613Z,7.71
2018-03-31T04:39:12.626Z,7.58
2018-03-31T04:40:12.636Z,7.67
2018-03-31T04:41:12.651Z,7.64
2018-03-31T04:42:12.667Z,7.61
2018-03-31T04:43:12.678Z,7.60
2018-03-31T04:44:12.700Z,7.48
2018-03-31T04:45:12.705Z,7.46
2018-03-31T04:46:12.721Z,7.50
2018-03-31T04:47:12.737Z,7.43
2018-03-31T04:48:12.744Z,7.58
2018-03-31T04:49:12.760Z,7.55
2018-03-31T04:50:12.772Z,7.63
2018-03-31T04:51:12.783Z,7.50
2018-03-31T04:52:12.797Z,7.46
2018-03-31T04:53:12.808Z,7.53
2018-03-31T04:54:12.822Z,7.53
2018-03-31T04:55:12.893Z,7.52
2018-03-31T04:56:12.849Z,7.42
2018-03-31T04:57:12.867Z,7.52
2018-03-31T04:58:12.906Z,7.43
2018-03-31T04:59:12.888Z,7.46
2018-03-31T05:00:12.905Z,7.46
2018-03-31T05:01:12.921Z,7.46
2018-03-31T05:02:12.942Z,7.45
2018-03-31T05:03:12.944Z,7.43
2018-03-31T05:04:12.956Z,7.40
2018-03-31T05:05:12.969Z,7.40
2018-03-31T05:06:12.981Z,7.55
2018-03-31T05:07:13.005Z,7.48
2018-03-31T05:08:13.008Z,7.46
2018-03-31T05:09:13.019Z,7.46
2018-03-31T05:10:13.032Z,7.48
2018-03-31T05:11:13.045Z,7.55
2018-03-31T05:12:13.058Z,7.55
2018-03-31T05:13:13.073Z,7.57
2018-03-31T05:14:13.087Z,7.58
2018-03-31T05:15:13.099Z,7.50
2018-03-31T05:16:13.111Z,7.55
2018-03-31T05:17:13.124Z,7.43
2018-03-31T05:18:13.139Z,7.49
2018-03-31T05:19:13.148Z,7.42
2018-03-31T05:20:13.186Z,7.48
2018-03-31T05:21:13.177Z,7.60
2018-03-31T05:22:13.225Z,7.46
2018-03-31T05:23:13.245Z,7.43
2018-03-31T05:24:13.215Z,7.49
2018-03-31T05:25:13.227Z,7.35
2018-03-31T05:26:13.241Z,7.43
2018-03-31T05:27:13.252Z,7.42
2018-03-31T05:28:13.266Z,7.46
2018-03-31T05:29:13.284Z,7.46
2018-03-31T05:30:13.299Z,7.42
2018-03-31T05:31:13.306Z,7.45
2018-03-31T05:32:13.321Z,7.43
2018-03-31T05:33:13.331Z,7.43
2018-03-31T05:34:13.350Z,7.50
2018-03-31T05:35:13.361Z,7.46
2018-03-31T05:36:13.370Z,7.49
2018-03-31T05:37:13.383Z,7.48
2018-03-31T05:38:13.409Z,7.49
2018-03-31T05:39:13.406Z,7.52
2018-03-31T05:40:13.424Z,7.52
2018-03-31T05:41:13.436Z,7.52
2018-03-31T05:42:13.503Z,7.48
2018-03-31T05:43:13.468Z,7.55
2018-03-31T05:44:13.473Z,7.58
2018-03-31T05:45:13.488Z,7.42
2018-03-31T05:46:13.501Z,7.60
2018-03-31T05:47:13.513Z,7.55
2018-03-31T05:48:13.525Z,7.50
2018-03-31T05:49:13.538Z,7.53
2018-03-31T05:50:13.556Z,7.40
2018-03-31T05:51:13.570Z,7.42
2018-03-31T05:52:13.578Z,7.48
2018-03-31T05:53:13.596Z,7.55
2018-03-31T05:54:13.611Z,7.48
2018-03-31T05:55:13.617Z,7.32
2018-03-31T05:56:13.631Z,7.40
2018-03-31T05:57:13.646Z,7.45
2018-03-31T05:58:13.655Z,7.42
2018-03-31T05:59:13.674Z,7.40
2018-03-31T06:00:13.682Z,7.40
2018-03-31T06:01:13.704Z,7.43
2018-03-31T06:02:13.707Z,7.43
2018-03-31T06:03:13.720Z,7.37
2018-03-31T06:04:13.740Z,7.39
2018-03-31T06:05:13.752Z,7.39
2018-03-31T06:06:13.760Z,7.42
2018-03-31T06:07:13.773Z,7.42
2018-03-31T06:08:13.786Z,7.42
2018-03-31T06:09:13.800Z,7.45
2018-03-31T06:10:13.817Z,7.42
2018-03-31T06:11:13.827Z,7.42
2018-03-31T06:12:13.840Z,7.37
2018-03-31T06:13:13.856Z,7.48
2018-03-31T06:14:13.865Z,7.45
2018-03-31T06:15:13.903Z,7.42
2018-03-31T06:16:13.893Z,7.50
2018-03-31T06:17:13.908Z,7.45
2018-03-31T06:18:13.919Z,7.46
2018-03-31T06:19:13.932Z,7.57
2018-03-31T06:20:13.945Z,7.57
2018-03-31T06:21:13.957Z,7.52
2018-03-31T06:22:13.971Z,7.60
2018-03-31T06:23:13.984Z,7.61
2018-03-31T06:24:14.002Z,7.63
2018-03-31T06:25:14.021Z,7.58
2018-03-31T06:26:14.024Z,7.60
2018-03-31T06:27:14.040Z,7.60
2018-03-31T06:28:14.053Z,7.63
2018-03-31T06:29:14.067Z,7.63
2018-03-31T06:30:14.081Z,7.64
2018-03-31T06:31:14.100Z,7.61
2018-03-31T06:32:14.110Z,7.60
2018-03-31T06:33:14.118Z,7.67
2018-03-31T06:34:14.132Z,7.69
2018-03-31T06:35:14.151Z,7.75
2018-03-31T06:36:14.156Z,7.74
2018-03-31T06:37:14.172Z,7.75
2018-03-31T06:38:14.183Z,7.90
2018-03-31T06:39:14.202Z,7.85
2018-03-31T06:40:14.217Z,7.90
2018-03-31T06:41:14.232Z,7.77
2018-03-31T06:42:14.256Z,7.82
2018-03-31T06:43:14.259Z,7.82
2018-03-31T06:44:14.329Z,7.89
2018-03-31T06:45:14.280Z,7.87
2018-03-31T06:46:14.293Z,7.87
2018-03-31T06:47:14.304Z,7.97
2018-03-31T06:48:14.322Z,7.97
2018-03-31T06:49:14.334Z,7.95
2018-03-31T06:50:14.347Z,8.02
2018-03-31T06:51:14.360Z,7.92
2018-03-31T06:52:14.385Z,8.04
2018-03-31T06:53:14.398Z,8.00
2018-03-31T06:54:14.401Z,8.02
2018-03-31T06:55:14.414Z,7.98
2018-03-31T06:56:14.429Z,7.97
2018-03-31T06:57:14.439Z,7.95
2018-03-31T06:58:14.557Z,7.92
2018-03-31T06:59:14.470Z,7.92
2018-03-31T07:00:14.483Z,7.92
2018-03-31T07:01:14.498Z,7.93
2018-03-31T07:02:14.516Z,8.01
2018-03-31T07:03:14.532Z,7.89
2018-03-31T07:04:14.537Z,7.98
2018-03-31T07:05:14.554Z,8.01
2018-03-31T07:06:14.564Z,7.95
2018-03-31T07:07:14.578Z,8.04
2018-03-31T07:08:14.589Z,8.05
2018-03-31T07:09:14.614Z,8.11
2018-03-31T07:10:14.633Z,8.11
2018-03-31T07:11:14.630Z,8.01
2018-03-31T07:12:14.645Z,8.07
2018-03-31T07:13:14.660Z,8.00
2018-03-31T07:14:14.673Z,8.02
2018-03-31T07:15:14.686Z,8.11
2018-03-31T07:16:14.699Z,8.01
2018-03-31T07:17:14.715Z,8.04
2018-03-31T07:18:14.736Z,8.19
2018-03-31T07:19:14.751Z,8.19
2018-03-31T07:20:14.759Z,8.22
2018-03-31T07:21:14.767Z,8.25
2018-03-31T07:22:14.840Z,8.29
2018-03-31T07:23:14.801Z,8.34
2018-03-31T07:24:14.823Z,8.29
2018-03-31T07:25:14.824Z,8.28
2018-03-31T07:26:14.845Z,8.37
2018-03-31T07:27:14.857Z,8.29
2018-03-31T07:28:14.865Z,8.36
2018-03-31T07:29:14.883Z,8.38
2018-03-31T07:30:14.894Z,8.43
2018-03-31T07:31:14.909Z,8.50
2018-03-31T07:32:14.983Z,8.55
2018-03-31T07:33:14.931Z,8.56
2018-03-31T07:34:14.951Z,8.56
2018-03-31T07:35:14.961Z,8.59
2018-03-31T07:36:15.042Z,8.62
2018-03-31T07:37:14.999Z,8.58
2018-03-31T07:38:15.002Z,8.62
2018-03-31T07:39:15.016Z,8.66
2018-03-31T07:40:15.031Z,8.66
2018-03-31T07:41:15.048Z,8.71
2018-03-31T07:42:15.066Z,8.66
2018-03-31T07:43:15.073Z,8.80
2018-03-31T07:44:15.085Z,8.80
2018-03-31T07:45:15.099Z,8.91
2018-03-31T07:46:15.111Z,8.98
2018-03-31T07:47:15.125Z,9.05
2018-03-31T07:48:15.144Z,9.02
2018-03-31T07:49:15.155Z,8.98
2018-03-31T07:50:15.168Z,8.87
2018-03-31T07:51:15.193Z,8.95
2018-03-31T07:52:15.205Z,8.96
2018-03-31T07:53:15.213Z,9.08
2018-03-31T07:54:15.225Z,9.05
2018-03-31T07:55:15.248Z,9.13
2018-03-31T07:56:15.253Z,9.10
2018-03-31T07:57:15.271Z,9.11
2018-03-31T07:58:15.297Z,9.17
2018-03-31T07:59:15.296Z,9.24
2018-03-31T08:00:15.310Z,9.24
2018-03-31T08:01:15.338Z,9.21
2018-03-31T08:02:15.344Z,9.17
2018-03-31T08:03:15.358Z,9.20
2018-03-31T08:04:15.367Z,9.23
2018-03-31T08:05:15.380Z,9.24
2018-03-31T08:06:15.395Z,9.24
2018-03-31T08:07:15.408Z,9.31
2018-03-31T08:08:15.423Z,9.35
2018-03-31T08:09:15.440Z,9.42
2018-03-31T08:10:15.453Z,9.42
2018-03-31T08:11:15.469Z,9.58
2018-03-31T08:12:15.481Z,9.50
2018-03-31T08:13:15.493Z,9.56
2018-03-31T08:14:15.507Z,9.68
2018-03-31T08:15:15.525Z,9.69
2018-03-31T08:16:15.544Z,9.76
2018-03-31T08:17:15.559Z,9.75
2018-03-31T08:18:15.569Z,9.79
2018-03-31T08:19:15.580Z,9.83
2018-03-31T08:20:15.595Z,9.79
2018-03-31T08:21:15.613Z,9.76
2018-03-31T08:22:15.623Z,9.87
2018-03-31T08:23:15.638Z,9.81
2018-03-31T08:24:15.678Z,9.81
2018-03-31T08:25:15.673Z,9.81
2018-03-31T08:26:15.680Z,9.78
2018-03-31T08:27:15.700Z,9.72
2018-03-31T08:28:15.711Z,9.69
2018-03-31T08:29:15.724Z,9.68
2018-03-31T08:30:15.791Z,9.61
2018-03-31T08:31:15.751Z,9.71
2018-03-31T08:32:15.765Z,9.74
2018-03-31T08:33:15.781Z,9.72
2018-03-31T08:34:15.799Z,9.84
2018-03-31T08:35:15.810Z,9.84
2018-03-31T08:36:15.884Z,9.75
2018-03-31T08:37:15.841Z,9.78
2018-03-31T08:38:15.956Z,9.75
2018-03-31T08:39:15.872Z,9.89
2018-03-31T08:40:15.882Z,9.87
2018-03-31T08:41:15.903Z,9.93
2018-03-31T08:42:15.935Z,9.99
2018-03-31T08:43:15.925Z,10.04
2018-03-31T08:44:15.949Z,10.08
2018-03-31T08:45:15.959Z,10.11
2018-03-31T08:47:16.069Z,10.22
2018-03-31T08:49:16.477Z,10.23
2018-03-31T08:50:16.023Z,10.23
2018-03-31T08:51:16.036Z,10.38
2018-03-31T08:52:16.053Z,10.51
2018-03-31T08:53:16.973Z,10.47
2018-03-31T08:54:16.296Z,10.61
2018-03-31T08:55:16.102Z,10.56
2018-03-31T08:56:16.473Z,10.53
2018-03-31T08:57:16.125Z,10.56
2018-03-31T08:58:16.347Z,10.59
2018-03-31T08:59:16.160Z,10.47
2018-03-31T09:00:16.169Z,10.45
2018-03-31T09:01:16.185Z,10.51
2018-03-31T09:02:16.198Z,10.45
2018-03-31T09:03:16.277Z,10.59
2018-03-31T09:04:16.237Z,10.51
2018-03-31T09:05:16.262Z,10.60
2018-03-31T09:06:16.258Z,10.47
2018-03-31T09:07:16.307Z,10.45
2018-03-31T09:08:16.285Z,10.41
2018-03-31T09:09:16.347Z,10.38
2018-03-31T09:10:16.315Z,10.41
2018-03-31T09:11:16.333Z,10.42
2018-03-31T09:12:16.362Z,10.47
2018-03-31T09:13:16.359Z,10.64
2018-03-31T09:14:16.379Z,10.68
2018-03-31T09:15:16.401Z,10.76
2018-03-31T09:16:16.548Z,10.66
2018-03-31T09:17:16.416Z,10.59
2018-03-31T09:19:16.453Z,10.60
2018-03-31T09:20:16.465Z,10.66
2018-03-31T09:21:16.477Z,10.66
2018-03-31T09:22:16.491Z,10.70
2018-03-31T09:23:16.517Z,10.82
2018-03-31T09:24:16.528Z,10.94
2018-03-31T09:25:16.538Z,11.02
2018-03-31T09:26:16.554Z,10.97
2018-03-31T09:27:16.566Z,10.85
2018-03-31T09:28:16.581Z,10.70
2018-03-31T09:29:16.596Z,10.89
2018-03-31T09:30:16.609Z,11.03
2018-03-31T09:31:16.637Z,11.09
2018-03-31T09:32:16.747Z,11.10
2018-03-31T09:33:16.657Z,11.03
2018-03-31T09:34:16.719Z,11.15
2018-03-31T09:35:16.684Z,11.11
2018-03-31T09:36:16.725Z,11.04
2018-03-31T09:37:16.715Z,11.04
2018-03-31T09:38:18.062Z,11.14
2018-03-31T09:39:16.788Z,11.19
2018-03-31T09:40:16.772Z,11.29
2018-03-31T09:41:16.774Z,11.29
2018-03-31T09:42:16.789Z,11.29
2018-03-31T09:43:16.805Z,11.44
2018-03-31T09:44:16.818Z,11.57
2018-03-31T09:45:16.834Z,11.55
2018-03-31T09:46:16.846Z,11.52
2018-03-31T09:47:16.861Z,11.70
2018-03-31T09:48:16.882Z,11.57
2018-03-31T09:49:16.897Z,11.57
2018-03-31T09:50:16.907Z,11.36
2018-03-31T09:51:16.926Z,11.33
2018-03-31T09:52:16.985Z,11.29
2018-03-31T09:53:16.981Z,11.36
2018-03-31T09:54:16.973Z,11.29
2018-03-31T09:55:16.995Z,11.36
2018-03-31T09:56:17.004Z,11.40
2018-03-31T09:57:17.011Z,11.46
2018-03-31T09:58:17.026Z,11.52
2018-03-31T09:59:17.054Z,11.57
2018-03-31T10:00:17.058Z,11.54
2018-03-31T10:01:17.083Z,11.58
2018-03-31T10:02:17.103Z,11.52
2018-03-31T10:03:17.108Z,11.54
2018-03-31T10:04:17.153Z,11.73
2018-03-31T10:05:17.145Z,11.82
2018-03-31T10:06:17.148Z,11.99
2018-03-31T10:07:17.168Z,12.07
2018-03-31T10:08:17.182Z,12.10
2018-03-31T10:09:17.193Z,11.85
2018-03-31T10:10:17.206Z,11.73
2018-03-31T10:11:18.077Z,11.69
2018-03-31T10:12:18.143Z,11.85
2018-03-31T10:13:17.250Z,11.78
2018-03-31T10:14:17.270Z,11.78
2018-03-31T10:15:17.285Z,11.91
2018-03-31T10:16:17.295Z,12.09
2018-03-31T10:17:17.313Z,12.19
2018-03-31T10:18:17.329Z,12.20
2018-03-31T10:19:17.347Z,11.90
2018-03-31T10:20:17.612Z,11.90
2018-03-31T10:21:17.376Z,12.05
2018-03-31T10:22:17.389Z,12.14
2018-03-31T10:23:17.405Z,12.19
2018-03-31T10:24:17.439Z,12.21
2018-03-31T10:25:17.437Z,12.17
2018-03-31T10:26:17.449Z,12.27
2018-03-31T10:27:17.470Z,12.35
2018-03-31T10:28:17.482Z,12.41
2018-03-31T10:29:17.542Z,12.38
2018-03-31T10:30:17.515Z,12.34
2018-03-31T10:31:17.525Z,12.45
2018-03-31T10:32:17.543Z,12.49
2018-03-31T10:33:17.561Z,12.59
2018-03-31T10:34:17.572Z,12.52
2018-03-31T10:35:17.605Z,12.60
2018-03-31T10:36:17.606Z,12.68
2018-03-31T10:37:17.641Z,12.49
2018-03-31T10:38:17.636Z,12.29
2018-03-31T10:39:17.647Z,12.20
2018-03-31T10:40:17.667Z,12.07
2018-03-31T10:41:17.880Z,12.16
2018-03-31T10:42:17.702Z,12.10
2018-03-31T10:43:17.725Z,12.27
2018-03-31T10:44:17.734Z,12.39
2018-03-31T10:45:17.743Z,12.47
2018-03-31T10:46:17.755Z,12.54
2018-03-31T10:47:17.770Z,12.57
2018-03-31T10:48:17.788Z,12.45
2018-03-31T10:49:17.812Z,12.50
2018-03-31T10:50:17.974Z,12.50
2018-03-31T10:51:17.837Z,12.56
2018-03-31T10:52:18.130Z,12.60
2018-03-31T10:53:17.924Z,12.78
2018-03-31T10:54:17.877Z,12.78
2018-03-31T10:55:17.906Z,12.78
2018-03-31T10:56:17.913Z,12.92
2018-03-31T10:57:17.945Z,12.92
2018-03-31T10:58:17.943Z,13.04
2018-03-31T10:59:18.001Z,13.04
2018-03-31T11:00:18.018Z,12.90
2018-03-31T11:01:17.987Z,12.95
2018-03-31T11:02:18.002Z,13.01
2018-03-31T11:03:18.032Z,12.87
2018-03-31T11:04:18.040Z,12.89
2018-03-31T11:05:18.046Z,12.89
2018-03-31T11:06:18.064Z,12.82
2018-03-31T11:07:18.079Z,12.79
2018-03-31T11:08:18.105Z,12.77
2018-03-31T11:09:18.113Z,12.90
2018-03-31T11:10:18.124Z,12.93
2018-03-31T11:11:18.145Z,12.96
2018-03-31T11:12:18.155Z,13.07
2018-03-31T11:13:18.169Z,13.17
2018-03-31T11:14:18.192Z,13.29
2018-03-31T11:15:18.205Z,13.42
2018-03-31T11:16:18.214Z,13.48
2018-03-31T11:17:18.236Z,13.42
2018-03-31T11:18:18.249Z,13.38
2018-03-31T11:19:18.276Z,13.45
2018-03-31T11:20:18.277Z,13.45
2018-03-31T11:21:18.294Z,13.45
2018-03-31T11:22:18.316Z,13.45
2018-03-31T11:23:18.352Z,13.39
2018-03-31T11:24:18.347Z,13.54
2018-03-31T11:25:18.363Z,13.62
2018-03-31T11:26:18.371Z,13.73
2018-03-31T11:27:18.401Z,13.87
2018-03-31T11:28:18.404Z,13.62
2018-03-31T11:29:18.417Z,13.78
2018-03-31T11:30:18.429Z,13.87
2018-03-31T11:31:18.449Z,14.10
2018-03-31T11:32:18.461Z,14.21
2018-03-31T11:33:18.479Z,14.25
2018-03-31T11:34:18.495Z,14.03
2018-03-31T11:35:18.520Z,13.89
2018-03-31T11:36:18.524Z,13.60
2018-03-31T11:37:18.540Z,13.63
2018-03-31T11:38:18.557Z,13.38
2018-03-31T11:39:18.586Z,13.42
2018-03-31T11:40:18.589Z,13.46
2018-03-31T11:41:18.636Z,13.63
2018-03-31T11:42:19.042Z,13.77
2018-03-31T11:43:18.637Z,13.87
2018-03-31T11:44:18.654Z,14.06
2018-03-31T11:45:18.671Z,14.15
2018-03-31T11:46:18.687Z,14.15
2018-03-31T11:47:18.698Z,14.02
2018-03-31T11:48:18.713Z,13.69
2018-03-31T11:49:18.729Z,13.64
2018-03-31T11:50:18.753Z,13.70
2018-03-31T11:51:18.762Z,13.67
2018-03-31T11:52:18.877Z,13.69
2018-03-31T11:53:18.797Z,13.70
2018-03-31T11:54:18.881Z,13.73
2018-03-31T11:55:18.843Z,13.60
2018-03-31T11:56:18.842Z,13.54
2018-03-31T11:57:18.859Z,13.46
2018-03-31T11:58:18.872Z,13.52
2018-03-31T11:59:18.889Z,13.45
2018-03-31T12:00:18.905Z,13.55
2018-03-31T12:01:18.924Z,13.70
2018-03-31T12:02:18.944Z,13.85
2018-03-31T12:03:18.953Z,13.89
2018-03-31T12:04:18.974Z,13.99
2018-03-31T12:05:18.992Z,14.10
2018-03-31T12:06:19.001Z,14.25
2018-03-31T12:07:19.015Z,14.45
2018-03-31T12:08:19.030Z,14.55
2018-03-31T12:09:19.046Z,14.58
2018-03-31T12:10:19.066Z,14.57
2018-03-31T12:11:19.078Z,14.62
2018-03-31T12:12:19.096Z,14.64
2018-03-31T12:13:19.135Z,14.62
2018-03-31T12:14:19.130Z,14.58
2018-03-31T12:15:19.143Z,14.43
2018-03-31T12:16:19.161Z,14.45
2018-03-31T12:17:19.177Z,14.45
2018-03-31T12:18:19.202Z,14.35
2018-03-31T12:19:19.207Z,14.22
2018-03-31T12:20:19.227Z,14.25
2018-03-31T12:21:19.239Z,14.28
2018-03-31T12:22:19.264Z,14.20
2018-03-31T12:23:19.337Z,14.35
2018-03-31T12:24:19.295Z,14.46
2018-03-31T12:25:19.316Z,14.60
2018-03-31T12:26:19.331Z,14.61
2018-03-31T12:27:19.339Z,14.72
2018-03-31T12:28:19.352Z,14.73
2018-03-31T12:29:19.365Z,14.99
2018-03-31T12:30:19.388Z,14.92
2018-03-31T12:31:19.416Z,14.92
2018-03-31T12:32:19.435Z,14.54
2018-03-31T12:33:19.434Z,14.40
2018-03-31T12:34:19.448Z,14.15
2018-03-31T12:35:19.467Z,14.15
2018-03-31T12:36:19.488Z,14.22
2018-03-31T12:37:19.516Z,14.35
2018-03-31T12:38:19.514Z,14.46
2018-03-31T12:39:19.530Z,14.52
2018-03-31T12:40:19.545Z,14.50
2018-03-31T12:41:19.575Z,14.55
2018-03-31T12:42:19.586Z,14.77
2018-03-31T12:43:19.594Z,14.70
2018-03-31T12:44:19.609Z,14.73
2018-03-31T12:45:19.631Z,14.96
2018-03-31T12:46:19.641Z,14.89
2018-03-31T12:47:19.666Z,14.94
2018-03-31T12:48:19.715Z,14.99
2018-03-31T12:49:19.693Z,15.06
2018-03-31T12:50:19.710Z,15.14
2018-03-31T12:51:19.728Z,15.14
2018-03-31T12:52:19.741Z,15.20
2018-03-31T12:53:19.758Z,15.29
2018-03-31T12:54:19.771Z,15.25
2018-03-31T12:55:19.787Z,15.35
2018-03-31T12:56:19.808Z,15.38
2018-03-31T12:57:19.822Z,15.36
2018-03-31T12:58:19.837Z,15.29
2018-03-31T12:59:19.854Z,15.29
2018-03-31T13:00:19.870Z,15.43
2018-03-31T13:01:19.886Z,15.28
2018-03-31T13:02:19.907Z,15.46
2018-03-31T13:03:19.920Z,15.53
2018-03-31T13:04:19.938Z,15.49
2018-03-31T13:05:19.952Z,15.68
2018-03-31T13:06:19.969Z,15.65
2018-03-31T13:07:19.986Z,15.74
2018-03-31T13:08:20.004Z,15.76
2018-03-31T13:09:20.025Z,15.82
2018-03-31T13:10:20.035Z,15.74
2018-03-31T13:11:20.059Z,15.74
2018-03-31T13:12:20.072Z,15.78
2018-03-31T13:13:20.086Z,15.76